createdAt,value
2023-03-13T00:01:40.312Z,58.65
2023-03-13T00:04:08.786Z,58.80
2023-03-13T00:06:43.678Z,58.64
2023-03-13T00:09:12.889Z,58.54
2023-03-13T00:11:42.722Z,58.67
2023-03-13T00:14:13.464Z,58.76
2023-03-13T00:16:42.015Z,58.70
2023-03-13T00:19:10.273Z,58.73
2023-03-13T00:21:38.394Z,58.68
2023-03-13T00:24:07.044Z,58.62
2023-03-13T00:26:35.615Z,58.68
2023-03-13T00:29:05.811Z,58.82
2023-03-13T00:31:34.081Z,58.89
2023-03-13T00:34:05.838Z,59.09
2023-03-13T00:36:35.087Z,59.08
2023-03-13T00:39:08.192Z,59.19
2023-03-13T00:41:36.838Z,59.05
2023-03-13T00:44:08.475Z,59.08
2023-03-13T00:46:38.365Z,59.18
2023-03-13T00:49:06.567Z,59.12
2023-03-13T00:51:35.798Z,59.14
2023-03-13T00:54:05.067Z,59.02
2023-03-13T00:56:34.466Z,58.97
2023-03-13T00:59:02.808Z,59.01
2023-03-13T01:01:32.777Z,59.04
2023-03-13T01:04:03.879Z,58.98
2023-03-13T01:06:34.146Z,59.09
2023-03-13T01:09:03.658Z,59.03
2023-03-13T01:11:35.105Z,59.12
2023-03-13T01:14:08.683Z,59.04
2023-03-13T01:16:38.131Z,58.97
2023-03-13T01:19:09.694Z,58.94
2023-03-13T01:21:41.888Z,58.99
2023-03-13T01:24:10.076Z,58.95
2023-03-13T01:26:40.057Z,59.08
2023-03-13T01:29:14.218Z,59.16
2023-03-13T01:31:42.198Z,59.26
2023-03-13T01:34:15.281Z,59.31
2023-03-13T01:36:44.091Z,59.26
2023-03-13T01:39:12.438Z,59.41
2023-03-13T01:41:42.332Z,59.38
2023-03-13T01:44:50.850Z,59.37
2023-03-13T01:47:19.392Z,59.26
2023-03-13T01:50:02.004Z,59.38
2023-03-13T01:52:41.984Z,59.44
2023-03-13T01:55:22.535Z,59.36
2023-03-13T01:57:53.113Z,59.24
2023-03-13T02:00:24.206Z,59.19
2023-03-13T02:02:54.933Z,59.27
2023-03-13T02:05:26.138Z,59.28
2023-03-13T02:08:01.810Z,59.39
2023-03-13T02:10:31.798Z,59.40
2023-03-13T02:13:00.188Z,59.38
2023-03-13T02:15:33.522Z,59.45
2023-03-13T02:18:03.807Z,59.40
2023-03-13T02:20:35.821Z,59.37
2023-03-13T02:23:20.735Z,59.48
2023-03-13T02:25:53.542Z,59.43
2023-03-13T02:28:27.745Z,59.43
2023-03-13T02:30:59.027Z,59.53
2023-03-13T02:33:29.565Z,59.39
2023-03-13T02:35:59.728Z,59.31
2023-03-13T02:38:29.706Z,59.30
2023-03-13T02:40:57.900Z,59.23
2023-03-13T02:43:31.278Z,59.09
2023-03-13T02:46:13.638Z,59.08
2023-03-13T02:48:53.012Z,59.08
2023-03-13T02:51:33.395Z,58.93
2023-03-13T02:54:09.098Z,58.87
2023-03-13T02:56:41.126Z,58.95
2023-03-13T02:59:10.310Z,58.99
2023-03-13T03:01:41.795Z,59.01
2023-03-13T03:04:10.120Z,59.04
2023-03-13T03:06:38.369Z,58.93
2023-03-13T03:09:07.351Z,58.95
2023-03-13T03:11:36.973Z,59.01
2023-03-13T03:14:08.952Z,58.95
2023-03-13T03:16:42.005Z,58.72
2023-03-13T03:19:15.442Z,58.70
2023-03-13T03:21:44.197Z,58.33
2023-03-13T03:24:12.302Z,57.95
2023-03-13T03:26:42.912Z,57.81
2023-03-13T03:29:15.514Z,57.46
2023-03-13T03:31:44.562Z,57.45
2023-03-13T03:34:14.131Z,57.31
2023-03-13T03:36:42.583Z,57.25
2023-03-13T03:39:11.813Z,57.03
2023-03-13T03:41:40.018Z,56.96
2023-03-13T03:44:08.641Z,56.91
2023-03-13T03:46:51.495Z,56.60
2023-03-13T03:49:20.422Z,56.33
2023-03-13T03:51:49.636Z,56.13
2023-03-13T03:54:20.461Z,56.23
2023-03-13T03:56:50.141Z,56.35
2023-03-13T03:59:24.401Z,56.49
2023-03-13T04:02:12.920Z,56.49
2023-03-13T04:04:43.225Z,56.35
2023-03-13T04:07:20.905Z,56.12
2023-03-13T04:09:50.170Z,56.14
2023-03-13T04:12:40.256Z,56.27
2023-03-13T04:15:10.353Z,56.38
2023-03-13T04:17:39.098Z,56.42
2023-03-13T04:20:10.517Z,56.47
2023-03-13T04:22:39.429Z,56.47
2023-03-13T04:25:10.024Z,56.62
2023-03-13T04:27:39.140Z,56.62
2023-03-13T04:30:08.685Z,56.57
2023-03-13T04:33:25.656Z,56.95
2023-03-13T04:36:12.374Z,57.02
2023-03-13T04:38:52.331Z,57.12
2023-03-13T04:41:42.931Z,57.23
2023-03-13T04:44:34.489Z,57.55
2023-03-13T04:47:14.933Z,57.91
2023-03-13T04:50:03.852Z,58.35
2023-03-13T04:52:55.523Z,58.93
2023-03-13T04:55:50.181Z,59.59
2023-03-13T04:58:46.901Z,59.99
2023-03-13T05:01:29.088Z,60.17
2023-03-13T05:04:20.220Z,60.50
2023-03-13T05:07:20.149Z,60.71
2023-03-13T05:10:08.835Z,60.82
2023-03-13T05:13:02.810Z,61.08
2023-03-13T05:15:48.214Z,61.12
2023-03-13T05:18:44.571Z,61.23
2023-03-13T05:21:51.027Z,61.50
2023-03-13T05:24:43.565Z,61.49
2023-03-13T05:27:29.249Z,61.56
2023-03-13T05:30:12.482Z,61.65
2023-03-13T05:33:05.861Z,61.84
2023-03-13T05:35:57.023Z,61.97
2023-03-13T05:38:39.179Z,62.32
2023-03-13T05:41:25.945Z,62.58
2023-03-13T05:44:00.174Z,62.85
2023-03-13T05:46:57.054Z,63.13
2023-03-13T05:49:40.405Z,63.75
2023-03-13T05:52:28.929Z,64.10
2023-03-13T05:55:18.402Z,64.46
2023-03-13T05:58:01.674Z,64.74
2023-03-13T06:00:48.912Z,65.04
2023-03-13T06:03:37.058Z,65.23
2023-03-13T06:06:06.265Z,65.28
2023-03-13T06:08:40.613Z,65.49
2023-03-13T06:11:09.494Z,65.78
2023-03-13T06:13:37.952Z,66.18
2023-03-13T06:16:28.445Z,66.27
2023-03-13T06:19:12.866Z,66.60
2023-03-13T06:21:41.768Z,66.98
2023-03-13T06:24:09.938Z,67.02
2023-03-13T06:26:38.346Z,67.33
2023-03-13T06:29:06.528Z,67.45
2023-03-13T06:31:34.961Z,67.50
2023-03-13T06:34:04.109Z,67.76
2023-03-13T06:36:32.833Z,67.74
2023-03-13T06:39:00.976Z,67.80
2023-03-13T06:41:29.418Z,67.94
2023-03-13T06:43:57.543Z,68.10
2023-03-13T06:46:26.312Z,68.19
2023-03-13T06:48:54.428Z,68.16
2023-03-13T06:51:22.625Z,68.18
2023-03-13T06:53:52.589Z,68.20
2023-03-13T06:58:31.765Z,68.18
2023-03-13T07:01:06.945Z,68.10
2023-03-13T07:03:36.007Z,68.19
2023-03-13T07:06:06.215Z,68.17
2023-03-13T07:08:36.356Z,67.90
2023-03-13T07:11:07.569Z,67.89
2023-03-13T07:13:37.455Z,67.69
2023-03-13T07:16:07.368Z,67.63
2023-03-13T07:18:36.558Z,67.72
2023-03-13T07:21:05.380Z,67.46
2023-03-13T07:23:34.555Z,66.92
2023-03-13T07:26:04.686Z,66.37
2023-03-13T07:28:35.567Z,66.04
2023-03-13T07:31:12.338Z,65.80
2023-03-13T07:33:41.283Z,65.45
2023-03-13T07:36:10.208Z,65.36
2023-03-13T07:38:40.215Z,65.15
2023-03-13T07:41:08.362Z,64.99
2023-03-13T07:43:37.739Z,64.98
2023-03-13T07:46:07.444Z,65.01
2023-03-13T07:48:37.181Z,64.72
2023-03-13T07:51:06.556Z,64.52
2023-03-13T07:53:34.746Z,64.10
2023-03-13T07:56:05.481Z,63.67
2023-03-13T07:58:35.256Z,63.55
2023-03-13T08:01:10.067Z,63.58
2023-03-13T08:03:39.497Z,63.67
2023-03-13T08:06:14.364Z,63.62
2023-03-13T08:08:42.951Z,63.65
2023-03-13T08:11:13.195Z,63.69
2023-03-13T08:13:42.464Z,63.88
2023-03-13T08:16:15.905Z,63.77
2023-03-13T08:18:46.249Z,63.71
2023-03-13T08:21:17.560Z,63.44
2023-03-13T08:23:47.520Z,63.31
2023-03-13T08:26:23.328Z,63.47
2023-03-13T08:28:56.549Z,63.69
2023-03-13T08:31:29.234Z,63.46
2023-03-13T08:33:57.638Z,63.24
2023-03-13T08:36:27.350Z,63.21
2023-03-13T08:38:58.868Z,63.35
2023-03-13T08:41:29.215Z,63.29
2023-03-13T08:43:58.087Z,62.96
2023-03-13T08:46:26.537Z,62.71
2023-03-13T08:48:55.327Z,62.57
2023-03-13T08:51:24.828Z,62.56
2023-03-13T08:53:53.435Z,62.58
2023-03-13T08:56:24.432Z,62.09
2023-03-13T08:58:55.398Z,62.33
2023-03-13T09:01:25.028Z,62.39
2023-03-13T09:03:54.980Z,62.48
2023-03-13T09:06:23.198Z,62.32
2023-03-13T09:08:51.407Z,62.21
2023-03-13T09:11:22.171Z,62.16
2023-03-13T09:13:55.456Z,62.20
2023-03-13T09:16:24.308Z,62.10
2023-03-13T09:18:52.742Z,62.27
2023-03-13T09:21:27.710Z,62.13
2023-03-13T09:23:56.124Z,61.65
2023-03-13T09:26:24.650Z,61.68
2023-03-13T09:28:54.496Z,61.55
2023-03-13T09:31:28.283Z,61.39
2023-03-13T09:33:56.407Z,61.15
2023-03-13T09:36:25.725Z,60.74
2023-03-13T09:38:55.363Z,60.73
2023-03-13T09:41:33.232Z,60.63
2023-03-13T09:44:09.619Z,60.28
2023-03-13T09:46:53.162Z,60.64
2023-03-13T09:49:38.426Z,60.84
2023-03-13T09:52:17.826Z,60.91
2023-03-13T09:54:48.619Z,61.03
2023-03-13T09:57:44.677Z,60.92
2023-03-13T10:00:16.503Z,60.63
2023-03-13T10:02:59.344Z,60.71
2023-03-13T10:05:28.602Z,60.72
2023-03-13T10:08:15.940Z,60.82
2023-03-13T10:10:45.010Z,60.95
2023-03-13T10:13:50.195Z,61.30
2023-03-13T10:16:29.950Z,61.16
2023-03-13T10:18:59.381Z,61.26
2023-03-13T10:21:33.770Z,61.31
2023-03-13T10:24:08.111Z,61.49
2023-03-13T10:26:36.931Z,60.91
2023-03-13T10:29:32.006Z,60.97
2023-03-13T10:32:00.136Z,60.81
2023-03-13T10:34:48.034Z,60.78
2023-03-13T10:37:17.378Z,60.40
2023-03-13T10:39:47.554Z,60.22
2023-03-13T10:42:29.313Z,59.85
2023-03-13T10:45:02.067Z,59.91
2023-03-13T10:47:34.793Z,59.91
2023-03-13T11:06:55.331Z,59.88
2023-03-13T11:09:27.886Z,60.16
2023-03-13T11:12:02.577Z,60.14
2023-03-13T11:14:31.430Z,59.96
2023-03-13T11:17:21.539Z,60.18
2023-03-13T11:20:13.334Z,60.07
2023-03-13T11:23:19.888Z,60.05
2023-03-13T11:26:16.787Z,60.11
2023-03-13T11:29:09.885Z,59.57
2023-03-13T11:31:40.344Z,59.56
2023-03-13T11:34:28.496Z,59.42
2023-03-13T11:37:10.288Z,59.63
2023-03-13T11:39:49.287Z,59.71
2023-03-13T11:42:39.654Z,60.01
2023-03-13T11:45:28.011Z,59.20
2023-03-13T11:47:56.690Z,58.47
2023-03-13T11:50:40.405Z,58.42
2023-03-13T11:53:27.289Z,58.27
2023-03-13T11:56:12.109Z,58.33
2023-03-13T11:59:08.098Z,58.52
2023-03-13T12:01:41.941Z,58.17
2023-03-13T12:04:23.408Z,58.02
2023-03-13T12:06:52.088Z,57.98
2023-03-13T12:09:43.557Z,57.82
2023-03-13T12:12:21.779Z,57.09
2023-03-13T12:15:00.125Z,56.84
2023-03-13T12:17:36.492Z,56.45
2023-03-13T12:20:24.674Z,56.12
2023-03-13T12:23:06.675Z,56.04
2023-03-13T12:25:39.363Z,55.93
2023-03-13T12:28:35.054Z,55.85
2023-03-13T12:31:21.508Z,56.07
2023-03-13T12:34:03.996Z,56.26
2023-03-13T12:36:39.054Z,55.96
2023-03-13T12:39:26.054Z,56.01
2023-03-13T12:42:20.621Z,55.70
2023-03-13T12:44:48.804Z,56.23
2023-03-13T12:47:31.058Z,55.62
2023-03-13T12:50:24.334Z,55.04
2023-03-13T12:53:06.257Z,54.44
2023-03-13T12:55:49.587Z,54.30
2023-03-13T12:58:31.785Z,54.17
2023-03-13T13:01:03.063Z,53.57
2023-03-13T13:03:40.137Z,53.72
2023-03-13T13:06:15.556Z,53.75
2023-03-13T13:09:09.841Z,53.29
2023-03-13T13:11:38.940Z,53.19
2023-03-13T13:14:19.297Z,53.23
2023-03-13T13:16:54.665Z,53.38
2023-03-13T13:19:25.978Z,53.44
2023-03-13T13:44:27.395Z,51.53
2023-03-13T13:46:58.741Z,51.58
2023-03-13T13:49:35.523Z,51.77
2023-03-13T13:52:03.997Z,51.67
2023-03-13T13:54:36.908Z,51.16
2023-03-13T13:57:09.514Z,50.85
2023-03-13T13:59:49.528Z,50.61
2023-03-13T14:02:22.762Z,50.61
2023-03-13T14:04:56.268Z,50.99
2023-03-13T14:07:36.863Z,51.04
2023-03-13T14:10:39.965Z,51.06
2023-03-13T14:13:12.431Z,51.01
2023-03-13T14:15:46.264Z,51.04
2023-03-13T14:18:24.076Z,51.03
2023-03-13T14:21:04.278Z,50.86
2023-03-13T14:23:45.555Z,50.92
2023-03-13T14:26:23.034Z,50.81
2023-03-13T14:29:02.931Z,50.74
2023-03-13T14:31:33.468Z,50.96
2023-03-13T14:34:07.380Z,51.01
2023-03-13T14:36:57.077Z,50.69
2023-03-13T14:39:32.868Z,50.88
2023-03-13T14:42:06.091Z,50.69
2023-03-13T14:44:35.015Z,50.59
2023-03-13T14:47:30.777Z,50.84
2023-03-13T14:50:00.673Z,50.87
2023-03-13T14:52:34.204Z,50.77
2023-03-13T14:55:05.305Z,50.97
2023-03-13T14:57:34.276Z,51.02
2023-03-13T15:00:29.774Z,50.94
2023-03-13T15:03:22.810Z,50.76
2023-03-13T15:06:07.594Z,50.98
2023-03-13T15:08:37.103Z,51.07
2023-03-13T15:11:32.294Z,51.15
2023-03-13T15:14:01.426Z,51.21
2023-03-13T15:16:29.856Z,51.17
2023-03-13T15:18:58.449Z,51.05
2023-03-13T15:21:29.609Z,50.77
2023-03-13T15:24:02.867Z,50.85
2023-03-13T15:26:32.325Z,51.08
2023-03-13T15:29:00.833Z,51.13
2023-03-13T15:31:29.455Z,51.15
2023-03-13T15:33:59.473Z,50.74
2023-03-13T15:36:30.641Z,51.01
2023-03-13T15:38:58.903Z,51.35
2023-03-13T15:41:27.135Z,51.37
2023-03-13T15:43:57.171Z,51.23
2023-03-13T15:46:25.747Z,51.14
2023-03-13T15:48:54.192Z,51.14
2023-03-13T15:51:22.897Z,51.13
2023-03-13T15:53:53.354Z,50.89
2023-03-13T15:56:23.443Z,51.21
2023-03-13T15:58:51.648Z,51.29
2023-03-13T16:01:23.334Z,51.09
2023-03-13T16:03:51.713Z,51.13
2023-03-13T16:06:28.234Z,51.03
2023-03-13T16:09:02.494Z,50.93
2023-03-13T16:11:30.880Z,50.98
2023-03-13T16:14:00.456Z,50.90
2023-03-13T16:16:31.206Z,51.04
2023-03-13T16:19:00.435Z,50.97
2023-03-13T16:21:32.039Z,51.05
2023-03-13T16:24:00.989Z,51.03
2023-03-13T16:26:31.039Z,50.98
2023-03-13T16:28:59.342Z,51.00
2023-03-13T16:31:29.838Z,51.03
2023-03-13T16:33:58.992Z,50.94
2023-03-13T16:36:30.453Z,51.03
2023-03-13T16:39:00.106Z,50.98
2023-03-13T16:41:29.318Z,50.97
2023-03-13T16:43:57.732Z,50.99
2023-03-13T16:46:37.481Z,50.69
2023-03-13T16:49:06.342Z,50.59
2023-03-13T16:51:35.718Z,50.55
2023-03-13T16:54:06.726Z,50.30
2023-03-13T16:56:43.210Z,50.18
2023-03-13T16:59:19.179Z,50.36
2023-03-13T17:01:47.472Z,50.16
2023-03-13T17:04:16.542Z,50.28
2023-03-13T17:06:45.025Z,50.17
2023-03-13T17:09:18.822Z,50.22
2023-03-13T17:11:48.094Z,50.29
2023-03-13T17:14:16.324Z,49.93
2023-03-13T17:16:51.328Z,50.12
2023-03-13T17:19:19.504Z,50.05
2023-03-13T17:21:49.303Z,50.17
2023-03-13T17:24:17.461Z,50.43
2023-03-13T17:26:47.993Z,50.45
2023-03-13T17:29:17.657Z,50.67
2023-03-13T17:31:46.929Z,50.78
2023-03-13T17:34:16.980Z,50.47
2023-03-13T17:36:45.865Z,50.61
2023-03-13T17:39:14.795Z,50.81
2023-03-13T17:41:42.959Z,50.82
2023-03-13T17:44:11.296Z,50.95
2023-03-13T17:46:44.728Z,51.08
2023-03-13T17:49:14.358Z,50.84
2023-03-13T17:51:44.426Z,51.02
2023-03-13T17:54:14.516Z,50.94
2023-03-13T17:56:44.283Z,50.91
2023-03-13T17:59:17.494Z,50.98
2023-03-13T18:01:46.125Z,50.65
2023-03-13T18:04:21.321Z,50.91
2023-03-13T18:06:50.725Z,50.81
2023-03-13T18:09:20.843Z,50.86
2023-03-13T18:11:50.286Z,50.88
2023-03-13T18:14:19.582Z,50.79
2023-03-13T18:16:48.364Z,51.04
2023-03-13T18:19:34.742Z,51.06
2023-03-13T18:22:03.052Z,51.25
2023-03-13T18:24:34.008Z,51.12
2023-03-13T18:27:02.924Z,51.30
2023-03-13T18:29:31.168Z,51.25
2023-03-13T18:32:00.707Z,51.20
2023-03-13T18:34:29.158Z,51.33
2023-03-13T18:37:04.467Z,51.54
2023-03-13T18:39:34.032Z,51.53
2023-03-13T18:42:02.229Z,51.68
2023-03-13T18:44:30.590Z,51.70
2023-03-13T18:46:58.789Z,51.71
2023-03-13T18:49:26.997Z,51.85
2023-03-13T18:51:55.256Z,51.87
2023-03-13T18:54:23.451Z,51.98
2023-03-13T18:56:52.856Z,51.90
2023-03-13T18:59:21.858Z,52.05
2023-03-13T19:01:51.360Z,52.07
2023-03-13T19:04:19.796Z,52.20
2023-03-13T19:06:48.643Z,52.22
2023-03-13T19:09:41.570Z,52.42
2023-03-13T19:12:07.156Z,52.38
2023-03-13T19:16:49.357Z,52.65
2023-03-13T19:19:21.071Z,52.75
2023-03-13T19:21:57.052Z,52.77
2023-03-13T19:24:27.012Z,52.79
2023-03-13T19:27:00.548Z,52.84
2023-03-13T19:29:28.928Z,52.98
2023-03-13T19:31:59.349Z,53.07
2023-03-13T19:34:27.970Z,53.13
2023-03-13T19:36:56.106Z,52.89
2023-03-13T19:39:27.805Z,52.85
2023-03-13T19:41:58.272Z,52.94
2023-03-13T19:44:30.571Z,53.23
2023-03-13T19:47:00.564Z,53.50
2023-03-13T19:49:28.674Z,53.83
2023-03-13T19:51:58.564Z,54.35
2023-03-13T19:54:27.211Z,54.36
2023-03-13T19:56:56.366Z,54.75
2023-03-13T19:59:35.285Z,55.01
2023-03-13T20:02:06.528Z,55.24
2023-03-13T20:04:35.588Z,55.45
2023-03-13T20:07:04.808Z,55.56
2023-03-13T20:09:35.448Z,55.74
2023-03-13T20:12:04.669Z,56.10
2023-03-13T20:14:34.640Z,56.45
2023-03-13T20:17:03.874Z,56.50
2023-03-13T20:19:32.234Z,56.94
2023-03-13T20:22:03.848Z,57.35
2023-03-13T20:24:35.936Z,57.87
2023-03-13T20:27:06.512Z,58.40
2023-03-13T20:29:38.688Z,58.74
2023-03-13T20:32:08.202Z,58.98
2023-03-13T20:34:36.801Z,59.03
2023-03-13T20:37:05.265Z,59.15
2023-03-13T20:39:37.656Z,59.47
2023-03-13T20:42:10.400Z,59.69
2023-03-13T20:44:38.641Z,59.76
2023-03-13T20:47:07.360Z,59.71
2023-03-13T20:49:36.094Z,59.89
2023-03-13T20:52:04.713Z,59.70
2023-03-13T20:54:34.313Z,59.60
2023-03-13T20:57:02.641Z,59.56
2023-03-13T20:59:32.091Z,59.52
2023-03-13T21:02:00.813Z,59.30
2023-03-13T21:04:29.362Z,59.04
2023-03-13T21:07:04.615Z,58.68
2023-03-13T21:09:37.021Z,58.41
2023-03-13T21:12:05.495Z,58.37
2023-03-13T21:14:36.211Z,58.11
2023-03-13T21:17:06.246Z,58.07
2023-03-13T21:19:38.376Z,57.81
2023-03-13T21:22:06.555Z,57.54
2023-03-13T21:24:37.575Z,57.58
2023-03-13T21:27:05.825Z,57.50
2023-03-13T21:29:37.715Z,57.53
2023-03-13T21:32:06.730Z,57.30
2023-03-13T21:34:35.339Z,57.10
2023-03-13T21:37:03.923Z,57.10
2023-03-13T21:39:32.409Z,56.74
2023-03-13T21:42:01.193Z,56.74
2023-03-13T21:44:29.403Z,56.53
2023-03-13T21:46:57.688Z,56.38
2023-03-13T21:49:25.899Z,56.22
2023-03-13T21:51:56.497Z,56.17
2023-03-13T21:54:25.342Z,56.04
2023-03-13T21:56:53.558Z,56.11
2023-03-13T21:59:24.206Z,55.97
2023-03-13T22:01:52.559Z,55.90
2023-03-13T22:04:20.861Z,55.67
2023-03-13T22:06:49.346Z,55.66
2023-03-13T22:09:17.512Z,55.58
2023-03-13T22:11:47.566Z,55.44
2023-03-13T22:14:16.996Z,55.11
2023-03-13T22:16:45.178Z,54.99
2023-03-13T22:19:13.466Z,54.91
2023-03-13T22:21:41.713Z,54.80
2023-03-13T22:24:11.123Z,54.92
2023-03-13T22:26:40.443Z,54.80
2023-03-13T22:29:08.572Z,54.65
2023-03-13T22:31:40.552Z,54.55
2023-03-13T22:34:09.017Z,54.54
2023-03-13T22:36:38.190Z,54.42
2023-03-13T22:39:07.532Z,54.33
2023-03-13T22:41:35.883Z,54.14
2023-03-13T22:44:04.209Z,54.12
2023-03-13T22:46:32.948Z,54.08
2023-03-13T22:49:01.366Z,54.03
2023-03-13T22:51:29.783Z,53.85
2023-03-13T22:53:57.959Z,53.73
2023-03-13T22:56:27.833Z,53.80
2023-03-13T22:58:56.317Z,53.52
2023-03-13T23:01:26.717Z,53.53
2023-03-13T23:03:55.052Z,53.57
2023-03-13T23:06:24.139Z,53.60
2023-03-13T23:08:55.498Z,53.52
2023-03-13T23:11:24.740Z,53.40
2023-03-13T23:14:02.906Z,53.41
2023-03-13T23:16:31.658Z,53.47
2023-03-13T23:19:01.925Z,53.35
2023-03-13T23:21:31.918Z,53.36
2023-03-13T23:24:00.101Z,53.16
2023-03-13T23:26:28.281Z,53.36
2023-03-13T23:28:56.518Z,53.43
2023-03-13T23:31:24.674Z,53.05
2023-03-13T23:33:53.676Z,52.92
2023-03-13T23:36:22.997Z,52.74
2023-03-13T23:38:52.438Z,52.55
2023-03-13T23:41:22.011Z,52.39
2023-03-13T23:43:50.418Z,52.66
2023-03-13T23:46:24.030Z,52.62
2023-03-13T23:48:53.808Z,52.70
2023-03-13T23:51:24.771Z,52.47
2023-03-13T23:53:53.638Z,52.57
2023-03-13T23:56:22.166Z,52.60
2023-03-13T23:58:55.505Z,52.44
